Latest Weather Observations for Julia Creek

IDQ60801

Issued at 10:35 pm EST Wednesday 30 July 2014 (issued every 30 minutes, with the page automatically refreshed every 10 minutes)

About weather observations | Map of weather stations | Latest weather observations for QLD | Other Formats
Station Details ID: 029058 Name: JULIA CREEK AIRPORT Lat: -20.67 Lon: 141.72 Height: 122.5 m
Data from the previous 72 hours. | See also: Recent months at Julia Creek
Date/Time
EST
Temp
°C
App
Temp
°C
Dew
Point
Rel
Hum
%
Delta-T
°C
Wind Press
QNH
hPa
Press
MSL
hPa
Rain
since 9 am
mm
Dir
 
Spd
km/h
Gust
km/h
Spd
kts
Gust
kts
30/10:30pm 17.2 12.9 0.8 33 7.2 SSE 13 15 7 8 1017.6 - 0.0
30/10:00pm 16.5 12.1 0.2 33 7.0 SSE 13 15 7 8 1017.6 1017.4 0.0
30/09:30pm 17.4 13.0 0.6 32 7.4 SSE 13 15 7 8 1017.4 - 0.0
30/09:00pm 17.2 12.4 -0.1 31 7.5 SSE 15 15 8 8 1017.4 1017.2 0.0
30/08:30pm 18.3 13.8 0.0 29 8.0 SE 13 13 7 7 1017.1 - 0.0
30/08:00pm 19.1 14.7 0.2 28 8.4 SE 13 15 7 8 1016.8 1016.6 0.0
30/07:30pm 20.6 16.2 0.4 26 9.1 SE 13 13 7 7 1016.5 - 0.0
30/07:00pm 22.2 17.9 1.3 25 9.7 SE 13 15 7 8 1016.2 1016.0 0.0
30/06:30pm 24.5 20.7 2.0 23 10.8 SE 11 13 6 7 1016.1 - 0.0
30/06:00pm 27.7 23.0 3.4 21 12.2 SE 17 20 9 11 1015.9 1015.6 0.0
30/05:30pm 28.9 25.1 3.7 20 12.8 SE 13 20 7 11 1015.8 - 0.0
30/05:00pm 29.5 24.9 3.5 19 13.2 ESE 17 24 9 13 1015.7 1015.4 0.0
30/04:30pm 30.0 27.3 3.9 19 13.4 SE 7 24 4 13 1015.6 - 0.0
30/04:00pm 30.1 25.9 4.0 19 13.4 ESE 15 22 8 12 1015.7 1015.4 0.0
30/03:30pm 29.9 25.3 3.8 19 13.4 ESE 17 26 9 14 1015.8 - 0.0
30/03:00pm 30.3 26.5 4.1 19 13.5 ESE 13 24 7 13 1015.9 1015.6 0.0
30/02:30pm 30.0 25.1 3.9 19 13.4 SE 19 32 10 17 1016.2 - 0.0
30/02:00pm 29.8 24.6 3.7 19 13.3 ESE 20 39 11 21 1016.7 1016.5 0.0
30/01:30pm 29.6 24.0 3.6 19 13.2 SSE 22 32 12 17 1017.3 - 0.0
30/01:00pm 29.4 23.5 4.1 20 13.0 ESE 24 35 13 19 1017.8 1017.6 0.0
30/12:30pm 29.6 24.8 5.6 22 12.7 SE 20 32 11 17 1018.4 - 0.0
30/12:00pm 28.7 24.0 6.1 24 11.9 ESE 20 32 11 17 1018.9 1018.7 0.0
30/11:30am 28.0 23.8 7.3 27 11.1 ESE 19 28 10 15 1019.5 - 0.0
30/11:00am 26.5 22.2 7.0 29 10.3 ESE 19 26 10 14 1020.1 1019.9 0.0
30/10:30am 24.5 20.4 6.3 31 9.4 ESE 17 22 9 12 1020.5 - 0.0
30/10:00am 22.9 18.7 5.8 33 8.7 ESE 17 22 9 12 1020.8 1020.6 0.0
30/09:30am 22.0 17.4 5.4 34 8.3 SE 19 24 10 13 1020.6 - 0.0
30/09:00am 20.2 15.1 3.9 34 7.8 SE 20 24 11 13 1020.5 1020.3 0.0
30/08:30am 18.5 13.2 2.8 35 7.3 SE 20 28 11 15 1020.3 - 0.0
30/08:00am 16.0 11.4 1.7 38 6.3 SSE 15 19 8 10 1020.2 1020.0 0.0
30/07:30am 14.1 9.8 1.1 41 5.6 SSE 13 17 7 9 1019.9 - 0.0
30/07:00am 14.1 9.8 1.1 41 5.6 SSE 13 17 7 9 1019.6 1019.4 0.0
30/06:30am 14.5 9.9 1.4 41 5.7 SSE 15 19 8 10 1019.3 - 0.0
30/06:00am 14.5 9.9 1.4 41 5.7 S 15 19 8 10 1019.0 1018.8 0.0
30/05:30am 14.4 9.4 1.3 41 5.7 S 17 19 9 10 1018.7 - 0.0
30/05:00am 14.3 10.0 1.2 41 5.7 S 13 15 7 8 1018.6 1018.4 0.0
30/04:30am 14.8 10.5 1.3 40 5.9 SSE 13 15 7 8 1018.3 - 0.0
30/04:00am 14.6 10.3 1.2 40 5.8 SSE 13 15 7 8 1018.1 1017.9 0.0
30/03:30am 15.0 10.7 0.8 38 6.1 SSE 13 15 7 8 1018.0 - 0.0
30/03:00am 14.9 10.6 0.7 38 6.1 S 13 17 7 9 1018.0 1017.8 0.0
30/02:30am 15.5 11.6 1.3 38 6.2 SSE 11 15 6 8 1018.1 - 0.0
30/02:00am 15.4 11.4 0.8 37 6.3 SE 11 13 6 7 1018.3 1018.1 0.0
30/01:30am 16.2 11.9 0.7 35 6.8 ESE 13 15 7 8 1018.3 - 0.0
30/01:00am 17.3 13.0 1.3 34 7.1 SE 13 17 7 9 1018.5 1018.3 0.0
30/12:30am 18.1 13.5 1.6 33 7.5 SE 15 17 8 9 1018.6 - 0.0
30/12:00am 18.0 13.8 1.5 33 7.4 SE 13 17 7 9 1018.4 1018.2 0.0
 
Date/Time
EST
Temp
°C
App
Temp
°C
Dew
Point
Rel
Hum
%
Delta-T
°C
Wind Press
QNH
hPa
Press
MSL
hPa
Rain
since 9 am
mm
Dir
 
Spd
km/h
Gust
km/h
Spd
kts
Gust
kts
29/11:30pm 18.5 14.0 1.9 33 7.6 SE 15 17 8 9 1018.6 - 0.0
29/11:00pm 18.1 13.9 1.6 33 7.4 SE 13 15 7 8 1018.7 1018.5 0.0
29/10:30pm 19.7 15.2 2.1 31 8.1 SSE 15 17 8 9 1018.8 - 0.0
29/10:00pm 20.8 16.5 3.1 31 8.4 SSE 15 19 8 10 1018.8 1018.6 0.0
29/09:30pm 20.7 16.4 3.0 31 8.4 SSE 15 17 8 9 1018.6 - 0.0
29/09:00pm 20.3 15.9 2.6 31 8.3 S 15 15 8 8 1018.5 1018.3 0.0
29/08:30pm 21.0 16.7 3.2 31 8.5 S 15 17 8 9 1018.2 - 0.0
29/08:00pm 20.2 15.6 1.6 29 8.5 S 15 15 8 8 1017.9 1017.7 0.0
29/07:30pm 21.5 17.5 2.7 29 8.9 SSE 13 15 7 8 1017.5 - 0.0
29/07:00pm 22.4 18.4 3.0 28 9.3 SSE 13 15 7 8 1017.2 1017.0 0.0
29/06:30pm 24.9 21.4 3.5 25 10.6 SSE 11 13 6 7 1017.0 - 0.0
29/06:00pm 27.9 24.3 4.9 23 11.8 SSE 13 17 7 9 1016.8 1016.6 0.0
29/05:30pm 29.1 25.9 5.2 22 12.5 SSE 11 17 6 9 1016.6 - 0.0
29/05:00pm 29.6 25.9 4.3 20 13.0 SSE 13 22 7 12 1016.5 1016.3 0.0
29/04:30pm 30.2 25.7 4.0 19 13.5 SSE 17 22 9 12 1016.4 - 0.0
29/04:00pm 30.0 26.6 3.9 19 13.4 ESE 11 20 6 11 1016.2 1016.0 0.0
29/03:30pm 29.9 25.7 3.8 19 13.4 SSE 15 20 8 11 1016.2 - 0.0
29/03:00pm 30.1 26.4 4.7 20 13.2 SSE 13 26 7 14 1016.4 1016.2 0.0
29/02:30pm 30.2 27.5 5.5 21 13.0 SSE 9 17 5 9 1016.8 - 0.0
29/02:00pm 30.2 26.3 5.5 21 13.0 S 15 22 8 12 1017.3 1017.1 0.0
29/01:30pm 29.2 26.7 4.6 21 12.7 SSE 7 15 4 8 1017.9 - 0.0
29/01:00pm 29.3 26.4 4.7 21 12.7 SE 9 22 5 12 1018.5 1018.3 0.0
29/12:30pm 29.4 26.0 6.1 23 12.4 SE 13 20 7 11 1019.1 - 0.0
29/12:00pm 28.6 25.9 7.2 26 11.5 SE 11 17 6 9 1019.5 1019.3 0.0
29/11:30am 28.2 26.8 9.0 30 10.6 ENE 6 9 3 5 1019.8 - 0.0
29/11:00am 26.7 25.1 8.2 31 10.0 ENE 6 9 3 5 1020.2 1020.0 0.0
29/10:30am 25.4 23.7 7.5 32 9.5 ENE 6 11 3 6 1020.6 - 0.0
29/10:00am 23.6 21.5 6.8 34 8.7 ENE 7 11 4 6 1020.7 1020.5 0.0
29/09:30am 22.3 19.1 5.3 33 8.5 E 11 15 6 8 1020.6 - 0.0
29/09:00am 20.4 17.0 4.0 34 7.9 ESE 11 15 6 8 1020.5 1020.3 0.0
29/08:30am 18.3 13.9 2.6 35 7.3 ESE 15 19 8 10 1020.3 - 0.0
29/08:00am 15.5 12.1 1.6 39 6.1 ESE 9 13 5 7 1020.0 1019.8 0.0
29/07:30am 12.3 8.3 0.4 44 5.0 ESE 11 13 6 7 1019.7 - 0.0
29/07:00am 11.8 8.5 0.0 44 4.8 SE 7 9 4 5 1019.3 1019.1 0.0
29/06:30am 12.2 8.1 0.0 43 5.0 SE 11 13 6 7 1019.0 - 0.0
29/06:00am 13.0 9.4 0.4 42 5.3 SE 9 11 5 6 1018.7 1018.5 0.0
29/05:30am 14.2 9.9 1.2 41 5.6 SE 13 15 7 8 1018.6 - 0.0
29/05:00am 15.3 11.8 1.4 39 6.1 SE 9 13 5 7 1018.5 1018.3 0.0
29/04:30am 15.4 10.5 1.9 40 6.0 SE 17 22 9 12 1018.4 - 0.0
29/04:00am 15.4 10.4 1.5 39 6.1 SE 17 19 9 10 1018.6 1018.4 0.0
29/03:30am 14.1 10.4 0.0 38 5.9 SE 9 11 5 6 1018.5 - 0.0
29/03:00am 13.6 9.9 -0.1 39 5.7 SSE 9 9 5 5 1018.7 1018.5 0.0
29/02:30am 15.2 11.5 0.2 36 6.4 E 9 13 5 7 1018.5 - 0.0
29/02:00am 15.4 12.2 0.8 37 6.3 SSE 7 9 4 5 1018.3 1018.1 0.0
29/01:30am 16.4 13.3 1.3 36 6.7 SSE 7 11 4 6 1018.5 - 0.0
29/01:00am 17.9 12.7 2.2 35 7.2 S 19 20 10 11 1018.5 1018.3 0.0
29/12:30am 16.2 12.4 1.5 37 6.5 SSE 11 15 6 8 1018.7 - 0.0
29/12:00am 17.5 13.3 1.5 34 7.2 SSE 13 13 7 7 1018.7 1018.5 0.0
 
Date/Time
EST
Temp
°C
App
Temp
°C
Dew
Point
Rel
Hum
%
Delta-T
°C
Wind Press
QNH
hPa
Press
MSL
hPa
Rain
since 9 am
mm
Dir
 
Spd
km/h
Gust
km/h
Spd
kts
Gust
kts
28/11:30pm 18.3 14.1 1.8 33 7.5 SSE 13 17 7 9 1018.9 - 0.0
28/11:00pm 17.7 13.9 1.7 34 7.2 SE 11 15 6 8 1019.0 1018.8 0.0
28/10:30pm 18.5 14.7 1.5 32 7.7 SE 11 17 6 9 1019.0 - 0.0
28/10:00pm 19.7 15.2 2.1 31 8.1 S 15 17 8 9 1018.9 1018.7 0.0
28/09:30pm 19.6 15.2 2.5 32 8.0 S 15 15 8 8 1018.9 - 0.0
28/09:00pm 18.7 14.4 1.2 31 7.9 S 13 17 7 9 1018.7 1018.5 0.0
28/08:30pm 20.1 16.0 2.0 30 8.4 S 13 17 7 9 1018.4 - 0.0
28/08:00pm 20.4 15.8 1.8 29 8.6 S 15 15 8 8 1018.2 1018.0 0.0
28/07:30pm 21.3 16.8 2.1 28 9.0 SSE 15 17 8 9 1017.9 - 0.0
28/07:00pm 22.4 18.3 2.5 27 9.4 SSE 13 13 7 7 1017.6 1017.4 0.0
28/06:30pm 24.5 20.9 3.2 25 10.4 SSE 11 13 6 7 1017.2 - 0.0
28/06:00pm 27.3 24.4 4.4 23 11.6 SE 9 13 5 7 1016.9 1016.7 0.0
28/05:30pm 28.6 24.6 4.8 22 12.3 SE 15 19 8 10 1016.9 - 0.0
28/05:00pm 28.9 26.5 5.1 22 12.4 SSE 7 15 4 8 1016.7 1016.5 0.0
28/04:30pm 29.4 25.9 5.5 22 12.6 SE 13 20 7 11 1016.7 - 0.0
28/04:00pm 29.6 27.3 5.6 22 12.6 S 7 17 4 9 1016.6 1016.4 0.0
28/03:30pm 29.7 25.9 5.7 22 12.7 SE 15 24 8 13 1016.8 - 0.0
28/03:00pm 29.8 27.1 5.8 22 12.7 S 9 19 5 10 1017.0 1016.8 0.0
28/02:30pm 29.4 27.4 6.1 23 12.4 E 6 11 3 6 1017.3 - 0.0
28/02:00pm 29.5 26.5 6.2 23 12.4 E 11 19 6 10 1017.8 1017.6 0.0
28/01:30pm 29.5 27.4 6.8 24 12.2 NE 7 17 4 9 1018.4 - 0.0
28/01:00pm 29.3 26.4 6.7 24 12.1 SE 11 17 6 9 1019.0 1018.8 0.0
28/12:30pm 28.5 25.6 6.6 25 11.7 ENE 11 24 6 13 1019.6 - 0.0
28/12:00pm 28.4 24.9 7.1 26 11.4 ENE 15 22 8 12 1020.1 1019.9 0.0
28/11:30am 27.5 24.8 7.4 28 10.8 ENE 11 17 6 9 1020.7 - 0.0
28/11:00am 26.2 23.6 7.7 31 9.9 ENE 11 19 6 10 1021.2 1021.0 0.0
28/10:30am 24.9 22.1 7.1 32 9.4 E 11 17 6 9 1021.5 - 0.0
28/10:00am 23.9 20.6 6.2 32 9.1 ESE 13 17 7 9 1021.6 1021.4 0.0
28/09:30am 22.2 18.6 5.2 33 8.5 SE 13 17 7 9 1021.7 - 0.0
28/09:00am 20.1 16.0 4.2 35 7.7 SE 15 20 8 11 1021.4 1021.2 0.0
28/08:30am 17.6 12.8 2.8 37 6.8 SSE 17 20 9 11 1021.3 - 0.0
28/08:00am 15.4 12.5 1.5 39 6.1 SSW 6 9 3 5 1021.2 1021.0 0.0
28/07:30am 14.0 9.8 1.6 43 5.4 SSE 13 19 7 10 1020.5 - 0.0
28/07:00am 13.6 9.8 1.6 44 5.2 S 11 13 6 7 1020.4 1020.2 0.0
28/06:30am 14.5 10.0 2.4 44 5.4 SSE 15 20 8 11 1020.1 - 0.0
28/06:00am 14.2 9.4 2.5 45 5.2 S 17 20 9 11 1019.7 1019.5 0.0
28/05:30am 13.2 8.7 2.4 48 4.8 S 15 17 8 9 1019.4 - 0.0
28/05:00am 12.8 9.1 2.1 48 4.7 S 11 17 6 9 1019.2 1019.0 0.0
28/04:30am 12.6 9.2 1.9 48 4.6 S 9 11 5 6 1019.2 - 0.0
28/04:00am 12.0 8.1 1.3 48 4.5 SSE 11 13 6 7 1019.0 1018.8 0.0
28/03:30am 12.8 8.6 1.5 46 4.9 SE 13 15 7 8 1019.1 - 0.0
28/03:00am 12.8 9.3 1.2 45 4.9 SE 9 9 5 5 1019.4 1019.2 0.0
28/02:30am 14.4 11.1 2.3 44 5.4 SE 9 9 5 5 1019.5 - 0.0
28/02:00am 15.0 11.3 2.5 43 5.6 SSE 11 13 6 7 1019.6 1019.4 0.0
28/01:30am 15.9 12.4 3.4 43 5.8 SSE 11 13 6 7 1019.6 - 0.0
28/01:00am 15.3 11.6 2.5 42 5.7 SSE 11 11 6 6 1019.7 1019.5 0.0
28/12:30am 16.4 12.4 3.1 41 6.1 SSE 13 13 7 7 1020.0 - 0.0
28/12:00am 16.9 13.0 3.2 40 6.3 SSE 13 15 7 8 1020.1 1019.9 0.0
 
Date/Time
EST
Temp
°C
App
Temp
°C
Dew
Point
Rel
Hum
%
Delta-T
°C
Wind Press
QNH
hPa
Press
MSL
hPa
Rain
since 9 am
mm
Dir
 
Spd
km/h
Gust
km/h
Spd
kts
Gust
kts
27/11:30pm 18.4 14.2 3.8 38 6.9 SSE 15 19 8 10 1020.2 - 0.0
27/11:00pm 18.8 14.7 4.2 38 7.0 SSE 15 19 8 10 1020.3 1020.1 0.0

Other Formats:

Comma delimited format used in spreadsheet applications
http://www.bom.gov.au/fwo/IDQ60801/IDQ60801.94337.axf

JavaScript Object Notation format (JSON) in row-major order
http://www.bom.gov.au/fwo/IDQ60801/IDQ60801.94337.json